createdAt,value
2019-01-20T00:00:06.292Z,0.00
2019-01-20T00:01:06.248Z,0.00
2019-01-20T00:02:06.222Z,0.00
2019-01-20T00:03:06.160Z,0.00
2019-01-20T00:04:06.116Z,0.00
2019-01-20T00:05:06.072Z,0.00
2019-01-20T00:06:06.007Z,0.00
2019-01-20T00:07:05.977Z,0.00
2019-01-20T00:08:05.943Z,0.00
2019-01-20T00:09:05.896Z,0.00
2019-01-20T00:10:05.830Z,0.00
2019-01-20T00:11:05.800Z,0.00
2019-01-20T00:12:05.742Z,0.00
2019-01-20T00:13:05.750Z,0.00
2019-01-20T00:14:05.676Z,0.00
2019-01-20T00:15:05.619Z,0.00
2019-01-20T00:16:05.573Z,0.00
2019-01-20T00:17:05.550Z,0.00
2019-01-20T00:18:05.566Z,0.00
2019-01-20T00:19:05.448Z,0.00
2019-01-20T00:20:05.427Z,0.00
2019-01-20T00:21:05.359Z,0.00
2019-01-20T00:22:05.306Z,0.00
2019-01-20T00:23:05.308Z,0.00
2019-01-20T00:24:05.227Z,0.00
2019-01-20T00:25:05.224Z,0.00
2019-01-20T00:26:05.160Z,0.00
2019-01-20T00:27:05.111Z,0.00
2019-01-20T00:28:05.045Z,0.00
2019-01-20T00:29:06.797Z,0.00
2019-01-20T00:30:04.971Z,0.00
2019-01-20T00:31:04.905Z,0.00
2019-01-20T00:32:04.863Z,0.00
2019-01-20T00:33:04.837Z,0.00
2019-01-20T00:34:04.781Z,0.00
2019-01-20T00:35:04.752Z,0.00
2019-01-20T00:36:04.741Z,0.00
2019-01-20T00:37:04.649Z,0.00
2019-01-20T00:38:04.619Z,0.00
2019-01-20T00:39:04.575Z,0.00
2019-01-20T00:40:04.524Z,0.00
2019-01-20T00:41:04.491Z,0.00
2019-01-20T00:42:04.422Z,0.00
2019-01-20T00:43:04.403Z,0.00
2019-01-20T00:44:04.343Z,0.00
2019-01-20T00:45:04.346Z,0.00
2019-01-20T00:46:04.254Z,0.00
2019-01-20T00:47:04.201Z,0.00
2019-01-20T00:48:04.166Z,0.00
2019-01-20T00:49:04.135Z,0.00
2019-01-20T00:50:04.091Z,0.00
2019-01-20T00:51:04.047Z,0.00
2019-01-20T00:52:03.992Z,0.00
2019-01-20T00:53:03.974Z,0.00
2019-01-20T00:54:03.909Z,0.00
2019-01-20T00:55:03.871Z,0.00
2019-01-20T00:56:03.827Z,0.00
2019-01-20T00:57:03.784Z,0.00
2019-01-20T00:58:03.804Z,0.00
2019-01-20T00:59:03.742Z,0.00
2019-01-20T01:00:03.638Z,0.00
2019-01-20T01:01:03.594Z,0.00
2019-01-20T01:02:03.591Z,0.00
2019-01-20T01:03:03.513Z,0.00
2019-01-20T01:04:03.456Z,0.00
2019-01-20T01:05:03.433Z,0.00
2019-01-20T01:06:03.391Z,0.00
2019-01-20T01:07:03.388Z,0.00
2019-01-20T01:08:03.301Z,0.00
2019-01-20T01:09:03.256Z,0.00
2019-01-20T01:10:03.214Z,0.00
2019-01-20T01:11:03.185Z,0.00
2019-01-20T01:12:03.111Z,0.00
2019-01-20T01:13:03.081Z,0.00
2019-01-20T01:14:03.023Z,0.00
2019-01-20T01:15:02.992Z,0.00
2019-01-20T01:16:02.936Z,0.00
2019-01-20T01:17:02.891Z,0.00
2019-01-20T01:18:02.887Z,0.00
2019-01-20T01:19:02.805Z,0.00
2019-01-20T01:20:02.765Z,0.00
2019-01-20T01:21:02.742Z,0.00
2019-01-20T01:22:02.671Z,0.00
2019-01-20T01:23:02.640Z,0.00
2019-01-20T01:24:02.589Z,0.00
2019-01-20T01:25:02.558Z,0.00
2019-01-20T01:26:02.500Z,0.00
2019-01-20T01:27:02.452Z,0.00
2019-01-20T01:28:02.407Z,0.00
2019-01-20T01:29:02.375Z,0.00
2019-01-20T01:30:02.324Z,0.00
2019-01-20T01:31:02.274Z,0.00
2019-01-20T01:32:02.252Z,0.00
2019-01-20T01:33:02.199Z,0.00
2019-01-20T01:34:02.150Z,0.00
2019-01-20T01:35:02.102Z,0.00
2019-01-20T01:36:02.058Z,0.00
2019-01-20T01:37:02.011Z,0.00
2019-01-20T01:38:01.969Z,0.00
2019-01-20T01:39:01.934Z,0.00
2019-01-20T01:40:01.917Z,0.00
2019-01-20T01:41:01.835Z,0.00
2019-01-20T01:42:01.801Z,0.00
2019-01-20T01:43:01.744Z,0.00
2019-01-20T01:44:01.704Z,0.00
2019-01-20T01:45:01.676Z,0.00
2019-01-20T01:46:01.640Z,0.00
2019-01-20T01:47:01.581Z,0.00
2019-01-20T01:48:01.536Z,0.00
2019-01-20T01:49:01.479Z,0.00
2019-01-20T01:50:01.447Z,0.00
2019-01-20T01:51:01.390Z,0.00
2019-01-20T01:52:01.360Z,0.00
2019-01-20T01:53:01.314Z,0.00
2019-01-20T01:54:01.271Z,0.00
2019-01-20T01:55:01.253Z,0.00
2019-01-20T01:56:01.183Z,0.00
2019-01-20T01:57:01.138Z,0.00
2019-01-20T01:58:01.097Z,0.00
2019-01-20T01:59:01.050Z,0.00
2019-01-20T02:00:01.031Z,0.00
2019-01-20T02:01:00.960Z,0.00
2019-01-20T02:02:00.915Z,0.00
2019-01-20T02:03:00.920Z,0.00
2019-01-20T02:04:00.827Z,0.00
2019-01-20T02:05:00.775Z,0.00
2019-01-20T02:06:00.741Z,0.00
2019-01-20T02:07:00.723Z,0.00
2019-01-20T02:08:00.650Z,0.00
2019-01-20T02:09:00.583Z,0.00
2019-01-20T02:10:00.582Z,0.00
2019-01-20T02:11:00.528Z,0.00
2019-01-20T02:12:00.461Z,0.00
2019-01-20T02:13:00.421Z,0.00
2019-01-20T02:14:00.374Z,0.00
2019-01-20T02:15:00.340Z,0.00
2019-01-20T02:16:00.294Z,0.00
2019-01-20T02:17:00.228Z,0.00
2019-01-20T02:18:00.234Z,0.00
2019-01-20T02:19:00.147Z,0.00
2019-01-20T02:20:00.238Z,0.00
2019-01-20T02:21:00.050Z,0.00
2019-01-20T02:22:00.047Z,0.00
2019-01-20T02:22:59.987Z,0.00
2019-01-20T02:23:59.931Z,0.00
2019-01-20T02:24:59.887Z,0.00
2019-01-20T02:25:59.836Z,0.00
2019-01-20T02:26:59.796Z,0.00
2019-01-20T02:27:59.748Z,0.00
2019-01-20T02:28:59.716Z,0.00
2019-01-20T02:29:59.671Z,0.00
2019-01-20T02:30:59.616Z,0.00
2019-01-20T02:31:59.561Z,0.00
2019-01-20T02:32:59.526Z,0.00
2019-01-20T02:33:59.474Z,0.00
2019-01-20T02:34:59.441Z,0.00
2019-01-20T02:35:59.383Z,0.00
2019-01-20T02:36:59.370Z,0.00
2019-01-20T02:37:59.307Z,0.00
2019-01-20T02:38:59.258Z,0.00
2019-01-20T02:39:59.218Z,0.00
2019-01-20T02:40:59.183Z,0.00
2019-01-20T02:41:59.117Z,0.00
2019-01-20T02:42:59.089Z,0.00
2019-01-20T02:43:59.052Z,0.00
2019-01-20T02:44:58.954Z,0.00
2019-01-20T02:45:58.992Z,0.00
2019-01-20T02:46:58.913Z,0.00
2019-01-20T02:47:58.849Z,0.00
2019-01-20T02:48:58.836Z,0.00
2019-01-20T02:49:58.779Z,0.00
2019-01-20T02:50:58.734Z,0.00
2019-01-20T02:51:58.715Z,0.00
2019-01-20T02:52:58.623Z,0.00
2019-01-20T02:53:58.587Z,0.00
2019-01-20T02:54:58.556Z,0.00
2019-01-20T02:55:58.510Z,0.00
2019-01-20T02:56:58.444Z,0.00
2019-01-20T02:57:58.433Z,0.00
2019-01-20T02:58:58.367Z,0.00
2019-01-20T02:59:58.327Z,0.00
2019-01-20T03:00:58.265Z,0.00
2019-01-20T03:01:58.225Z,0.00
2019-01-20T03:02:58.196Z,0.00
2019-01-20T03:03:58.180Z,0.00
2019-01-20T03:04:58.108Z,0.00
2019-01-20T03:05:58.062Z,0.00
2019-01-20T03:06:57.996Z,0.00
2019-01-20T03:07:57.959Z,0.00
2019-01-20T03:08:57.906Z,0.00
2019-01-20T03:09:57.875Z,0.00
2019-01-20T03:10:57.816Z,0.00
2019-01-20T03:12:03.378Z,0.00
2019-01-20T03:12:57.734Z,0.00
2019-01-20T03:13:57.689Z,0.00
2019-01-20T03:14:57.649Z,0.00
2019-01-20T03:15:57.600Z,0.00
2019-01-20T03:16:57.556Z,0.00
2019-01-20T03:17:57.504Z,0.00
2019-01-20T03:18:57.469Z,0.00
2019-01-20T03:19:57.414Z,0.00
2019-01-20T03:20:57.380Z,0.00
2019-01-20T03:21:57.332Z,0.00
2019-01-20T03:22:57.294Z,0.00
2019-01-20T03:23:57.241Z,0.00
2019-01-20T03:24:57.209Z,0.00
2019-01-20T03:25:57.194Z,0.00
2019-01-20T03:26:57.167Z,0.00
2019-01-20T03:27:57.129Z,0.00
2019-01-20T03:28:57.022Z,0.00
2019-01-20T03:29:56.977Z,0.00
2019-01-20T03:30:56.933Z,0.00
2019-01-20T03:31:56.902Z,0.00
2019-01-20T03:32:56.849Z,0.00
2019-01-20T03:33:56.806Z,0.00
2019-01-20T03:34:56.795Z,0.00
2019-01-20T03:35:56.711Z,0.00
2019-01-20T03:36:56.671Z,0.00
2019-01-20T03:37:56.652Z,0.00
2019-01-20T03:38:56.571Z,0.00
2019-01-20T03:39:56.515Z,0.00
2019-01-20T03:40:56.493Z,0.00
2019-01-20T03:41:56.448Z,0.00
2019-01-20T03:42:56.397Z,0.00
2019-01-20T03:43:56.357Z,0.00
2019-01-20T03:44:56.308Z,0.00
2019-01-20T03:45:56.261Z,0.00
2019-01-20T03:46:56.210Z,0.00
2019-01-20T03:47:56.158Z,0.00
2019-01-20T03:48:56.125Z,0.00
2019-01-20T03:49:56.090Z,0.00
2019-01-20T03:50:56.036Z,0.00
2019-01-20T03:51:55.978Z,0.00
2019-01-20T03:52:55.934Z,0.00
2019-01-20T03:53:55.899Z,0.00
2019-01-20T03:54:55.846Z,0.00
2019-01-20T03:55:55.808Z,0.00
2019-01-20T03:56:55.764Z,0.00
2019-01-20T03:57:55.711Z,0.00
2019-01-20T03:58:55.678Z,0.00
2019-01-20T03:59:55.629Z,0.00
2019-01-20T04:00:55.672Z,0.00
2019-01-20T04:01:55.531Z,0.00
2019-01-20T04:02:55.591Z,0.00
2019-01-20T04:03:55.470Z,0.00
2019-01-20T04:04:55.397Z,0.00
2019-01-20T04:05:55.407Z,0.00
2019-01-20T04:06:55.339Z,0.00
2019-01-20T04:07:55.284Z,0.00
2019-01-20T04:08:55.227Z,0.00
2019-01-20T04:09:55.182Z,0.00
2019-01-20T04:10:55.144Z,0.00
2019-01-20T04:11:55.093Z,0.00
2019-01-20T04:12:55.063Z,0.00
2019-01-20T04:13:54.995Z,0.00
2019-01-20T04:14:54.950Z,0.00
2019-01-20T04:15:54.939Z,0.00
2019-01-20T04:16:54.917Z,0.00
2019-01-20T04:17:54.832Z,0.00
2019-01-20T04:18:54.780Z,0.00
2019-01-20T04:19:54.726Z,0.00
2019-01-20T04:20:54.682Z,0.00
2019-01-20T04:21:54.637Z,0.00
2019-01-20T04:22:54.616Z,0.00
2019-01-20T04:23:54.557Z,0.00
2019-01-20T04:24:54.515Z,0.00
2019-01-20T04:25:54.468Z,0.00
2019-01-20T04:26:54.414Z,0.00
2019-01-20T04:27:54.377Z,0.00
2019-01-20T04:28:54.324Z,0.00
2019-01-20T04:29:54.280Z,0.00
2019-01-20T04:30:54.256Z,0.00
2019-01-20T04:31:54.202Z,0.00
2019-01-20T04:32:54.146Z,0.00
2019-01-20T04:33:54.121Z,0.00
2019-01-20T04:34:54.068Z,0.00
2019-01-20T04:35:54.031Z,0.00
2019-01-20T04:36:53.965Z,0.00
2019-01-20T04:37:53.942Z,0.00
2019-01-20T04:38:53.884Z,0.00
2019-01-20T04:39:53.831Z,0.00
2019-01-20T04:40:53.796Z,0.00
2019-01-20T04:41:53.741Z,0.00
2019-01-20T04:42:53.647Z,0.00
2019-01-20T04:43:53.667Z,0.00
2019-01-20T04:44:53.666Z,0.00
2019-01-20T04:45:53.577Z,0.00
2019-01-20T04:46:53.517Z,0.00
2019-01-20T04:47:53.499Z,0.00
2019-01-20T04:48:53.428Z,0.00
2019-01-20T04:49:53.420Z,0.00
2019-01-20T04:50:53.356Z,0.00
2019-01-20T04:51:53.314Z,0.00
2019-01-20T04:52:53.265Z,0.00
2019-01-20T04:53:53.206Z,0.00
2019-01-20T04:54:53.130Z,0.00
2019-01-20T04:55:53.127Z,0.00
2019-01-20T04:56:53.110Z,0.00
2019-01-20T04:57:53.037Z,0.00
2019-01-20T04:58:53.033Z,0.00
2019-01-20T04:59:52.956Z,0.00
2019-01-20T05:00:52.889Z,0.00
2019-01-20T05:01:52.866Z,0.00
2019-01-20T05:02:52.822Z,0.00
2019-01-20T05:03:52.777Z,0.00
2019-01-20T05:04:52.731Z,0.00
2019-01-20T05:05:52.665Z,0.00
2019-01-20T05:06:52.620Z,0.00
2019-01-20T05:07:52.596Z,0.00
2019-01-20T05:08:52.539Z,0.00
2019-01-20T05:09:52.498Z,0.00
2019-01-20T05:10:52.461Z,0.00
2019-01-20T05:11:52.416Z,0.00
2019-01-20T05:12:52.354Z,0.00
2019-01-20T05:13:52.344Z,0.00
2019-01-20T05:14:52.269Z,0.00
2019-01-20T05:15:52.238Z,0.00
2019-01-20T05:16:52.201Z,0.00
2019-01-20T05:17:52.160Z,0.00
2019-01-20T05:18:52.090Z,0.00
2019-01-20T05:19:52.045Z,0.00
2019-01-20T05:20:52.003Z,0.00
2019-01-20T05:21:51.986Z,0.00
2019-01-20T05:22:51.900Z,0.00
2019-01-20T05:23:51.870Z,0.00
2019-01-20T05:24:51.897Z,0.00
2019-01-20T05:25:51.789Z,0.00
2019-01-20T05:26:51.738Z,0.00
2019-01-20T05:27:51.688Z,0.00
2019-01-20T05:28:51.707Z,0.00
2019-01-20T05:29:51.598Z,0.00
2019-01-20T05:30:51.553Z,0.00
2019-01-20T05:31:51.558Z,0.00
2019-01-20T05:32:51.468Z,0.00
2019-01-20T05:33:51.446Z,0.00
2019-01-20T05:34:51.369Z,0.00
2019-01-20T05:35:51.337Z,0.00
2019-01-20T05:36:51.279Z,0.00
2019-01-20T05:37:51.253Z,0.00
2019-01-20T05:38:51.182Z,0.00
2019-01-20T05:39:51.145Z,0.00
2019-01-20T05:40:51.114Z,0.00
2019-01-20T05:41:51.046Z,0.00
2019-01-20T05:42:51.029Z,0.00
2019-01-20T05:43:50.958Z,0.00
2019-01-20T05:44:50.912Z,0.00
2019-01-20T05:45:50.888Z,0.00
2019-01-20T05:46:50.822Z,0.00
2019-01-20T05:47:50.799Z,0.00
2019-01-20T05:48:50.754Z,0.00
2019-01-20T05:49:50.687Z,0.00
2019-01-20T05:50:50.676Z,0.00
2019-01-20T05:51:50.619Z,0.00
2019-01-20T05:52:50.599Z,0.00
2019-01-20T05:53:50.559Z,0.00
2019-01-20T05:54:50.485Z,0.00
2019-01-20T05:55:50.432Z,0.00
2019-01-20T05:56:50.373Z,0.00
2019-01-20T05:57:50.337Z,0.00
2019-01-20T05:58:50.297Z,0.00
2019-01-20T05:59:50.262Z,0.00
2019-01-20T06:00:50.207Z,0.00
2019-01-20T06:01:50.174Z,0.00
2019-01-20T06:02:50.114Z,0.00
2019-01-20T06:03:50.065Z,0.00
2019-01-20T06:04:50.041Z,0.00
2019-01-20T06:05:49.992Z,0.00
2019-01-20T06:06:49.946Z,0.00
2019-01-20T06:07:49.901Z,0.00
2019-01-20T06:08:49.843Z,0.00
2019-01-20T06:09:49.811Z,0.00
2019-01-20T06:10:49.804Z,0.00
2019-01-20T06:11:49.726Z,0.00
2019-01-20T06:12:54.357Z,0.00
2019-01-20T06:13:49.634Z,0.00
2019-01-20T06:14:49.587Z,0.00
2019-01-20T06:15:49.543Z,0.00
2019-01-20T06:16:49.498Z,0.00
2019-01-20T06:17:49.452Z,0.00
2019-01-20T06:18:49.402Z,0.00
2019-01-20T06:19:49.378Z,0.00
2019-01-20T06:20:49.318Z,0.00
2019-01-20T06:21:49.252Z,0.00
2019-01-20T06:22:49.208Z,0.00
2019-01-20T06:23:49.214Z,0.00
2019-01-20T06:24:49.139Z,0.00
2019-01-20T06:25:49.081Z,0.00
2019-01-20T06:26:49.042Z,0.00
2019-01-20T06:27:48.989Z,0.00
2019-01-20T06:28:48.947Z,0.00
2019-01-20T06:29:48.894Z,0.00
2019-01-20T06:30:48.878Z,0.00
2019-01-20T06:31:48.812Z,0.00
2019-01-20T06:32:48.767Z,0.00
2019-01-20T06:33:48.714Z,0.00
2019-01-20T06:34:48.947Z,0.00
2019-01-20T06:35:48.624Z,0.00
2019-01-20T06:36:48.606Z,0.00
2019-01-20T06:37:48.555Z,0.00
2019-01-20T06:38:48.510Z,0.00
2019-01-20T06:39:48.443Z,0.00
2019-01-20T06:40:48.437Z,0.00
2019-01-20T06:41:48.391Z,0.00
2019-01-20T06:42:48.357Z,0.00
2019-01-20T06:43:48.278Z,0.00
2019-01-20T06:44:48.232Z,0.00
2019-01-20T06:45:48.174Z,0.00
2019-01-20T06:46:48.137Z,0.00
2019-01-20T06:47:48.099Z,0.00
2019-01-20T06:48:48.062Z,0.00
2019-01-20T06:49:47.994Z,0.00
2019-01-20T06:50:47.971Z,0.00
2019-01-20T06:51:47.919Z,0.00
2019-01-20T06:52:47.872Z,0.00
2019-01-20T06:53:47.814Z,0.00
2019-01-20T06:54:47.778Z,0.00
2019-01-20T06:55:47.745Z,0.00
2019-01-20T06:56:47.712Z,0.00
2019-01-20T06:57:47.634Z,0.00
2019-01-20T06:58:47.610Z,0.00
2019-01-20T06:59:47.553Z,0.00
2019-01-20T07:00:47.521Z,0.00
2019-01-20T07:01:47.464Z,0.00
2019-01-20T07:02:47.477Z,0.00
2019-01-20T07:03:47.377Z,0.00
2019-01-20T07:04:47.319Z,0.00
2019-01-20T07:05:47.312Z,0.00
2019-01-20T07:06:47.253Z,0.00
2019-01-20T07:07:47.194Z,0.00
2019-01-20T07:08:47.187Z,0.00
2019-01-20T07:09:47.094Z,0.00
2019-01-20T07:10:47.071Z,0.00
2019-01-20T07:11:47.004Z,0.00
2019-01-20T07:12:46.959Z,0.00
2019-01-20T07:13:46.927Z,0.00
2019-01-20T07:14:46.877Z,0.00
2019-01-20T07:15:46.834Z,0.00
2019-01-20T07:16:46.795Z,0.00
2019-01-20T07:17:46.750Z,0.00
2019-01-20T07:18:46.702Z,0.00
2019-01-20T07:19:46.707Z,0.00
2019-01-20T07:20:46.612Z,0.00
2019-01-20T07:21:46.568Z,0.00
2019-01-20T07:22:46.522Z,0.00
2019-01-20T07:23:46.529Z,0.00
2019-01-20T07:24:46.441Z,0.00
2019-01-20T07:25:46.383Z,0.00
2019-01-20T07:26:46.376Z,0.00
2019-01-20T07:27:46.306Z,0.00
2019-01-20T07:28:46.280Z,0.00
2019-01-20T07:29:46.194Z,0.00
2019-01-20T07:30:46.171Z,0.00
2019-01-20T07:31:46.118Z,0.00
2019-01-20T07:32:46.085Z,0.00
2019-01-20T07:33:46.036Z,0.00
2019-01-20T07:34:45.991Z,0.00
2019-01-20T07:35:45.933Z,0.00
2019-01-20T07:36:45.880Z,0.00
2019-01-20T07:37:45.853Z,0.00
2019-01-20T07:38:45.838Z,0.00
2019-01-20T07:39:45.761Z,0.00
2019-01-20T07:40:45.700Z,0.00
2019-01-20T07:41:45.665Z,0.00
2019-01-20T07:42:45.610Z,0.00
2019-01-20T07:43:45.579Z,0.00
2019-01-20T07:44:45.543Z,0.00
2019-01-20T07:45:45.489Z,0.00
2019-01-20T07:46:45.529Z,0.00
2019-01-20T07:47:45.416Z,0.00
2019-01-20T07:48:45.412Z,0.00
2019-01-20T07:49:45.336Z,0.00
2019-01-20T07:50:45.272Z,0.00
2019-01-20T07:51:45.206Z,0.00
2019-01-20T07:52:45.213Z,0.00
2019-01-20T07:53:45.124Z,0.00
2019-01-20T07:54:45.079Z,0.00
2019-01-20T07:55:45.047Z,0.00
2019-01-20T07:56:45.029Z,0.00
2019-01-20T07:57:44.964Z,0.00
2019-01-20T07:58:44.913Z,0.00
2019-01-20T07:59:44.859Z,0.00
2019-01-20T08:00:44.850Z,0.00
2019-01-20T08:01:44.778Z,0.00
2019-01-20T08:02:44.720Z,0.00
2019-01-20T08:03:44.681Z,0.00
2019-01-20T08:04:44.643Z,0.00
2019-01-20T08:05:44.577Z,0.00
2019-01-20T08:06:44.556Z,0.00
2019-01-20T08:07:44.581Z,0.00
2019-01-20T08:08:44.442Z,0.00
2019-01-20T08:09:44.411Z,0.00
2019-01-20T08:10:44.365Z,0.00
2019-01-20T08:11:44.337Z,0.00
2019-01-20T08:12:44.266Z,0.00
2019-01-20T08:13:44.229Z,0.00
2019-01-20T08:14:44.185Z,0.00
2019-01-20T08:15:44.167Z,0.00
2019-01-20T08:16:44.082Z,0.00
2019-01-20T08:17:44.065Z,0.00
2019-01-20T08:18:44.015Z,0.00
2019-01-20T08:19:43.961Z,0.00
2019-01-20T08:20:43.943Z,4.00
2019-01-20T08:21:43.858Z,0.00
2019-01-20T08:22:43.817Z,0.00
2019-01-20T08:23:43.783Z,4.00
2019-01-20T08:24:43.737Z,4.00
2019-01-20T08:25:43.700Z,4.00
2019-01-20T08:26:43.643Z,4.00
2019-01-20T08:27:43.589Z,8.00
2019-01-20T08:28:43.545Z,8.00
2019-01-20T08:29:43.521Z,12.00
2019-01-20T08:30:43.475Z,12.00
2019-01-20T08:31:43.466Z,16.00
2019-01-20T08:32:43.373Z,16.00
2019-01-20T08:33:43.341Z,20.00
2019-01-20T08:34:43.275Z,16.00
2019-01-20T08:35:43.238Z,20.00
2019-01-20T08:36:43.247Z,24.00
2019-01-20T08:37:43.153Z,28.00
2019-01-20T08:38:43.148Z,32.00
2019-01-20T08:39:43.016Z,40.00
2019-01-20T08:40:43.014Z,48.00
2019-01-20T08:41:42.978Z,52.00
2019-01-20T08:42:42.920Z,60.00
2019-01-20T08:43:42.894Z,68.00
2019-01-20T08:44:42.847Z,72.00
2019-01-20T08:45:42.790Z,80.00
2019-01-20T08:46:42.758Z,84.00
2019-01-20T08:47:42.700Z,100.00
2019-01-20T08:48:42.647Z,104.00
2019-01-20T08:49:42.656Z,112.00
2019-01-20T08:50:42.579Z,120.00
2019-01-20T08:51:42.524Z,132.00
2019-01-20T08:52:42.467Z,148.00
2019-01-20T08:53:42.431Z,164.00
2019-01-20T08:54:42.386Z,184.00
2019-01-20T08:55:42.387Z,204.00
2019-01-20T08:56:42.309Z,224.00
2019-01-20T08:57:42.303Z,240.00
2019-01-20T08:58:42.211Z,264.00
2019-01-20T08:59:42.170Z,288.00
2019-01-20T09:00:42.118Z,296.00
2019-01-20T09:01:42.131Z,292.00
2019-01-20T09:02:42.040Z,288.00
2019-01-20T09:03:41.986Z,296.00
2019-01-20T09:04:41.937Z,312.00
2019-01-20T09:05:41.884Z,336.00
2019-01-20T09:06:41.852Z,388.00
2019-01-20T09:07:41.845Z,444.00
2019-01-20T09:08:41.762Z,512.00
2019-01-20T09:09:41.704Z,576.00
2019-01-20T09:10:41.673Z,660.00
2019-01-20T09:11:41.623Z,724.00
2019-01-20T09:12:41.569Z,792.00
2019-01-20T09:13:41.544Z,820.00
2019-01-20T09:14:41.488Z,864.00
2019-01-20T09:15:41.443Z,916.00
2019-01-20T09:16:41.485Z,972.00
2019-01-20T09:17:41.399Z,1052.00
2019-01-20T09:18:41.313Z,1176.00
2019-01-20T09:19:41.255Z,1336.00
2019-01-20T09:20:41.210Z,1504.00
2019-01-20T09:21:41.187Z,1656.00
2019-01-20T09:22:41.142Z,1824.00
2019-01-20T09:23:41.075Z,2048.00
2019-01-20T09:24:41.058Z,2396.00
2019-01-20T09:25:41.044Z,3176.00
2019-01-20T09:26:40.962Z,3756.00
2019-01-20T09:27:40.917Z,3844.00
2019-01-20T09:28:40.859Z,4164.00
2019-01-20T09:29:40.996Z,4892.00
2019-01-20T09:30:40.770Z,6148.00
2019-01-20T09:31:40.725Z,7176.00
2019-01-20T09:32:40.742Z,7840.00
2019-01-20T09:33:40.693Z,7892.00
2019-01-20T09:34:40.636Z,5764.00
2019-01-20T09:35:40.550Z,5656.00
2019-01-20T09:36:40.552Z,6180.00
2019-01-20T09:37:40.457Z,7280.00
2019-01-20T09:38:40.404Z,7432.00
2019-01-20T09:39:40.360Z,9116.00
2019-01-20T09:40:40.327Z,8620.00
2019-01-20T09:41:40.281Z,9188.00
2019-01-20T09:42:40.234Z,8816.00
2019-01-20T09:43:46.865Z,9316.00
2019-01-20T09:44:40.184Z,14772.00
2019-01-20T09:45:40.106Z,22304.00
2019-01-20T09:46:40.096Z,20576.00
2019-01-20T09:47:40.844Z,15680.00
2019-01-20T09:48:40.010Z,12280.00
2019-01-20T09:49:39.917Z,15384.00
2019-01-20T09:50:39.896Z,24416.00
2019-01-20T09:51:39.842Z,32960.00
2019-01-20T09:52:39.794Z,41280.00
2019-01-20T09:53:39.766Z,43520.00
2019-01-20T09:54:39.706Z,47392.00
2019-01-20T09:55:39.727Z,49568.00
2019-01-20T09:56:39.625Z,51008.00
2019-01-20T09:57:39.668Z,51520.00
2019-01-20T09:58:39.548Z,51904.00
2019-01-20T09:59:39.498Z,51328.00
2019-01-20T10:00:39.522Z,50816.00
2019-01-20T10:01:39.423Z,53216.00
2019-01-20T10:02:39.369Z,52192.00
2019-01-20T10:03:39.412Z,54496.00
2019-01-20T10:04:39.301Z,58016.00
2019-01-20T10:05:39.240Z,58784.00
2019-01-20T10:06:39.225Z,58848.00
2019-01-20T10:07:39.183Z,63424.00
2019-01-20T10:08:39.132Z,65152.00
2019-01-20T10:09:39.087Z,65152.00
2019-01-20T10:10:39.063Z,64960.00
2019-01-20T10:11:39.023Z,65216.00
2019-01-20T10:12:38.981Z,67104.00
2019-01-20T10:13:38.949Z,65536.00
2019-01-20T10:14:38.908Z,61248.00
2019-01-20T10:15:38.873Z,62112.00
2019-01-20T10:16:38.841Z,62112.00
2019-01-20T10:17:38.799Z,60096.00
2019-01-20T10:18:38.778Z,61056.00
2019-01-20T10:19:38.730Z,60864.00
2019-01-20T10:20:38.687Z,64256.00
2019-01-20T10:21:38.652Z,65216.00
2019-01-20T10:22:38.617Z,65152.00
2019-01-20T10:23:38.591Z,64864.00
2019-01-20T10:24:38.621Z,60224.00
2019-01-20T10:25:38.536Z,55296.00
2019-01-20T10:26:40.121Z,49056.00
2019-01-20T10:27:38.469Z,35968.00
2019-01-20T10:28:38.519Z,20832.00
2019-01-20T10:29:38.388Z,10044.00
2019-01-20T10:30:38.346Z,9496.00
2019-01-20T10:31:38.325Z,9536.00
2019-01-20T10:32:38.303Z,9052.00
2019-01-20T10:33:38.251Z,9820.00
2019-01-20T10:34:38.215Z,11984.00
2019-01-20T10:35:38.182Z,19584.00
2019-01-20T10:36:38.136Z,35264.00
2019-01-20T10:37:38.113Z,38368.00
2019-01-20T10:38:38.085Z,45408.00
2019-01-20T10:39:38.049Z,48864.00
2019-01-20T10:40:37.999Z,51552.00
2019-01-20T10:41:37.963Z,55808.00
2019-01-20T10:42:37.967Z,57280.00
2019-01-20T10:43:37.882Z,56512.00
2019-01-20T10:44:37.894Z,41600.00
2019-01-20T10:45:37.808Z,22560.00
2019-01-20T10:46:37.849Z,21344.00
2019-01-20T10:47:37.763Z,21344.00
2019-01-20T10:48:37.700Z,21248.00
2019-01-20T10:49:37.672Z,14432.00
2019-01-20T10:50:37.740Z,13004.00
2019-01-20T10:51:37.603Z,12104.00
2019-01-20T10:52:37.555Z,11428.00
2019-01-20T10:53:37.538Z,11000.00
2019-01-20T10:54:37.501Z,10720.00
2019-01-20T10:55:37.454Z,10588.00
2019-01-20T10:56:37.445Z,10732.00
2019-01-20T10:57:37.366Z,10816.00
2019-01-20T10:58:37.341Z,10656.00
2019-01-20T10:59:37.290Z,10544.00
2019-01-20T11:00:37.266Z,10452.00
2019-01-20T11:01:37.250Z,10428.00
2019-01-20T11:02:37.183Z,10344.00
2019-01-20T11:03:37.150Z,10376.00
2019-01-20T11:04:37.106Z,10452.00
2019-01-20T11:05:37.060Z,10380.00
2019-01-20T11:06:37.021Z,10356.00
2019-01-20T11:07:36.993Z,10420.00
2019-01-20T11:08:36.962Z,10580.00
2019-01-20T11:09:36.911Z,10700.00
2019-01-20T11:10:36.862Z,10872.00
2019-01-20T11:11:36.844Z,11012.00
2019-01-20T11:12:36.795Z,11172.00
2019-01-20T11:13:36.751Z,11144.00
2019-01-20T11:14:36.711Z,11068.00
2019-01-20T11:15:36.663Z,10948.00
2019-01-20T11:16:36.632Z,10980.00
2019-01-20T11:17:36.674Z,11020.00
2019-01-20T11:18:36.543Z,11548.00
2019-01-20T11:19:36.525Z,11828.00
2019-01-20T11:20:36.472Z,11648.00
2019-01-20T11:21:36.431Z,11672.00
2019-01-20T11:22:36.383Z,11480.00
2019-01-20T11:23:36.355Z,10396.00
2019-01-20T11:24:36.302Z,9256.00
2019-01-20T11:25:36.282Z,9612.00
2019-01-20T11:26:36.273Z,10064.00
2019-01-20T11:27:36.202Z,10004.00
2019-01-20T11:28:36.212Z,9588.00
2019-01-20T11:29:36.145Z,10188.00
2019-01-20T11:30:36.073Z,10728.00
2019-01-20T11:31:36.027Z,10780.00
2019-01-20T11:32:42.325Z,10956.00
2019-01-20T11:33:35.948Z,10844.00
2019-01-20T11:34:35.919Z,10788.00
2019-01-20T11:35:35.878Z,10936.00
2019-01-20T11:36:35.837Z,11032.00
2019-01-20T11:37:35.795Z,10880.00
2019-01-20T11:38:35.808Z,10724.00
2019-01-20T11:39:35.707Z,10928.00
2019-01-20T11:40:35.676Z,11060.00
2019-01-20T11:41:35.636Z,10848.00
2019-01-20T11:42:35.593Z,9532.00
2019-01-20T11:43:35.553Z,9496.00
2019-01-20T11:44:35.513Z,9500.00
2019-01-20T11:45:35.472Z,9504.00
2019-01-20T11:46:35.431Z,10124.00
2019-01-20T11:47:41.804Z,10276.00
2019-01-20T11:48:35.341Z,10216.00
2019-01-20T11:49:35.288Z,10128.00
2019-01-20T11:50:35.290Z,10024.00
2019-01-20T11:51:35.207Z,10088.00
2019-01-20T11:52:35.281Z,10356.00
2019-01-20T11:53:35.140Z,10496.00
2019-01-20T11:54:35.130Z,10420.00
2019-01-20T11:55:35.057Z,10256.00
2019-01-20T11:56:35.012Z,10064.00
2019-01-20T11:57:34.985Z,9912.00
2019-01-20T11:58:34.971Z,9892.00
2019-01-20T11:59:34.928Z,10004.00
2019-01-20T12:00:34.844Z,10104.00
2019-01-20T12:01:34.801Z,9852.00
2019-01-20T12:02:34.780Z,9488.00
2019-01-20T12:03:34.719Z,9364.00
2019-01-20T12:04:34.695Z,8216.00
2019-01-20T12:05:34.654Z,7956.00
2019-01-20T12:06:34.609Z,7820.00
2019-01-20T12:07:34.576Z,7764.00
2019-01-20T12:08:34.527Z,8904.00
2019-01-20T12:09:34.489Z,8808.00
2019-01-20T12:10:34.593Z,8048.00
2019-01-20T12:11:34.400Z,8612.00
2019-01-20T12:12:34.371Z,8456.00
2019-01-20T12:13:34.309Z,8344.00
2019-01-20T12:14:34.358Z,8232.00
2019-01-20T12:15:34.232Z,8148.00
2019-01-20T12:16:34.196Z,8092.00
2019-01-20T12:17:34.215Z,7988.00
2019-01-20T12:18:34.121Z,7944.00
2019-01-20T12:19:34.095Z,7860.00
2019-01-20T12:20:34.027Z,7860.00
2019-01-20T12:21:33.989Z,7876.00
2019-01-20T12:22:34.023Z,7844.00
2019-01-20T12:23:33.907Z,7788.00
2019-01-20T12:24:33.915Z,7824.00
2019-01-20T12:25:33.833Z,7720.00
2019-01-20T12:26:33.846Z,7620.00
2019-01-20T12:27:33.748Z,7584.00
2019-01-20T12:28:33.692Z,7600.00
2019-01-20T12:29:33.673Z,7600.00
2019-01-20T12:30:33.632Z,7604.00
2019-01-20T12:31:33.577Z,7584.00
2019-01-20T12:32:33.541Z,7568.00
2019-01-20T12:33:33.509Z,7572.00
2019-01-20T12:34:33.446Z,7564.00
2019-01-20T12:35:33.407Z,7580.00
2019-01-20T12:36:33.365Z,7568.00
2019-01-20T12:37:33.329Z,7572.00
2019-01-20T12:38:33.296Z,7652.00
2019-01-20T12:39:33.295Z,7692.00
2019-01-20T12:40:33.221Z,7924.00
2019-01-20T12:41:33.215Z,7868.00
2019-01-20T12:42:33.119Z,7840.00
2019-01-20T12:43:33.099Z,7168.00
2019-01-20T12:44:33.049Z,6964.00
2019-01-20T12:45:33.743Z,7660.00
2019-01-20T12:46:32.963Z,7992.00
2019-01-20T12:47:32.934Z,7844.00
2019-01-20T12:48:32.885Z,7672.00
2019-01-20T12:49:32.843Z,7608.00